Main page
METAR-TAF:

METAR-TAF

Airports :

Kuressaare Airport

Kuressaare, Estonia

latitude: 58-13-48N, longitude: 022-30-34E, elevation: 4 m

Current weather observation

The report was made 28 minutes ago, at 19:50 UTC
Wind 1 kt from the North
Temperature 2°C
Humidity 93%
Pressure 1023 hPa
Visibility: 8000 m
mist

METAR: EEKE 201950Z AUTO 36001KT 8000NDV BR NCD 02/01 Q1023

Time: 23:18 (20:18 UTC)

Forecast

The report was made 13 hours and 18 minutes ago, at 07:00 UTC
Forecast valid from 20 at 08 UTC to 20 at 14 UTC
Wind 7 kt from the Southwest
Visibility 10 km or more
Scattered clouds at a height of 1200 ft
Scattered clouds at a height of 2000 ft
Temporary
from 20 at 08 UTC to 20 at 10 UTC
Visibility: 2000 m
Broken clouds at a height of 500 ft
mist

TAF: EEKE 200700Z 2008/2014 23007KT 9999 SCT012 SCT020 TEMPO 2008/2010 2000 BR BKN005

Weather observations and forecasts of more than 4000 airports (METAR and TAF reports).

The available stations are represented by yellow and red dots on the map.

Hover mouse over dot to see the name of the station.

Then click to see weather observations and forecasts.

To change the map : click on the green buttons with a black cross to zoom in, on the green button with a dash to zoom out, or on the green arrows for adjacent maps.


METAR-TAF: